createdAt,value
2022-11-17T00:00:35.007Z,14.20
2022-11-17T00:03:01.759Z,14.10
2022-11-17T00:05:28.510Z,14.20
2022-11-17T00:07:55.260Z,14.40
2022-11-17T00:10:22.039Z,14.30
2022-11-17T00:13:07.545Z,14.00
2022-11-17T00:15:34.410Z,13.90
2022-11-17T00:18:20.469Z,14.60
2022-11-17T00:21:05.948Z,14.10
2022-11-17T00:23:47.939Z,14.30
2022-11-17T00:26:17.370Z,14.60
2022-11-17T00:28:44.402Z,14.20
2022-11-17T00:31:33.611Z,14.60
2022-11-17T00:34:06.561Z,14.90
2022-11-17T00:36:37.983Z,14.70
2022-11-17T00:39:05.708Z,14.30
2022-11-17T00:41:32.694Z,14.00
2022-11-17T00:43:59.481Z,14.60
2022-11-17T00:46:26.570Z,14.20
2022-11-17T00:48:53.550Z,14.30
2022-11-17T00:51:20.943Z,14.60
2022-11-17T00:53:49.178Z,14.50
2022-11-17T00:56:16.524Z,14.70
2022-11-17T00:58:43.838Z,14.80
2022-11-17T01:01:11.445Z,14.30
2022-11-17T01:03:38.658Z,14.70
2022-11-17T01:06:18.004Z,14.50
2022-11-17T01:08:45.709Z,14.90
2022-11-17T01:11:18.836Z,14.50
2022-11-17T01:13:47.873Z,14.80
2022-11-17T01:16:18.758Z,14.90
2022-11-17T01:18:47.606Z,14.80
2022-11-17T01:21:21.423Z,14.40
2022-11-17T01:23:50.670Z,14.90
2022-11-17T01:26:21.699Z,14.90
2022-11-17T01:28:49.309Z,14.70
2022-11-17T01:31:22.734Z,14.90
2022-11-17T01:33:49.633Z,14.70
2022-11-17T01:36:25.902Z,14.60
2022-11-17T01:38:52.927Z,14.80
2022-11-17T01:41:26.584Z,14.40
2022-11-17T01:44:50.986Z,15.00
2022-11-17T01:47:35.713Z,15.00
2022-11-17T01:50:25.537Z,14.80
2022-11-17T01:52:59.495Z,14.80
2022-11-17T01:55:33.954Z,14.80
2022-11-17T01:58:13.990Z,14.80
2022-11-17T02:00:41.697Z,14.60
2022-11-17T02:03:09.109Z,14.60
2022-11-17T02:05:59.148Z,14.60
2022-11-17T02:08:29.150Z,14.90
2022-11-17T02:10:56.724Z,14.30
2022-11-17T02:13:24.534Z,14.40
2022-11-17T02:15:57.893Z,14.60
2022-11-17T02:18:48.673Z,13.90
2022-11-17T02:22:46.709Z,13.80
2022-11-17T02:26:11.873Z,13.90
2022-11-17T02:29:31.170Z,13.40
2022-11-17T02:32:35.189Z,13.60
2022-11-17T02:39:16.762Z,13.20
2022-11-17T02:42:22.373Z,13.30
2022-11-17T02:45:07.114Z,13.60
2022-11-17T02:47:41.545Z,13.00
2022-11-17T02:50:25.274Z,13.00
2022-11-17T02:52:54.886Z,13.00
2022-11-17T02:55:21.716Z,13.20
2022-11-17T02:57:49.650Z,13.90
2022-11-17T03:00:20.551Z,13.30
2022-11-17T03:03:24.243Z,13.50
2022-11-17T03:06:12.128Z,13.50
2022-11-17T03:08:49.658Z,13.40
2022-11-17T03:11:22.466Z,13.20
2022-11-17T03:14:02.106Z,12.90
2022-11-17T03:17:23.158Z,13.10
2022-11-17T03:20:11.241Z,13.30
2022-11-17T03:23:09.312Z,13.40
2022-11-17T03:25:41.348Z,13.00
2022-11-17T03:28:13.515Z,13.00
2022-11-17T03:30:45.143Z,13.10
2022-11-17T03:33:19.499Z,13.30
2022-11-17T03:36:23.111Z,13.50
2022-11-17T03:39:11.736Z,13.10
2022-11-17T03:41:49.886Z,13.40
2022-11-17T03:44:19.402Z,13.60
2022-11-17T03:46:49.225Z,13.60
2022-11-17T03:49:35.177Z,13.30
2022-11-17T03:52:02.060Z,13.10
2022-11-17T03:54:28.829Z,13.20
2022-11-17T03:57:05.137Z,13.70
2022-11-17T03:59:53.778Z,13.70
2022-11-17T04:02:22.542Z,13.60
2022-11-17T04:05:07.356Z,13.50
2022-11-17T04:07:40.363Z,12.70
2022-11-17T04:10:10.995Z,12.90
2022-11-17T04:12:56.604Z,12.90
2022-11-17T04:15:42.580Z,12.70
2022-11-17T04:18:09.321Z,13.50
2022-11-17T04:20:36.086Z,13.10
2022-11-17T04:23:08.037Z,13.00
2022-11-17T04:25:58.352Z,13.00
2022-11-17T04:28:39.145Z,12.70
2022-11-17T04:31:30.007Z,13.30
2022-11-17T04:34:00.109Z,12.70
2022-11-17T04:36:35.197Z,12.80
2022-11-17T04:39:02.792Z,13.20
2022-11-17T04:41:48.859Z,13.00
2022-11-17T04:44:17.763Z,13.00
2022-11-17T04:46:46.126Z,13.00
2022-11-17T04:49:16.740Z,13.20
2022-11-17T04:51:44.085Z,13.10
2022-11-17T04:54:14.356Z,13.00
2022-11-17T04:56:41.792Z,13.20
2022-11-17T04:59:08.791Z,13.00
2022-11-17T05:01:36.177Z,13.40
2022-11-17T05:04:09.344Z,12.90
2022-11-17T05:06:44.801Z,13.10
2022-11-17T05:09:16.783Z,12.90
2022-11-17T05:12:03.077Z,12.90
2022-11-17T05:14:30.316Z,13.00
2022-11-17T05:17:10.565Z,13.10
2022-11-17T05:19:44.609Z,13.10
2022-11-17T05:22:41.520Z,12.90
2022-11-17T05:25:09.281Z,12.80
2022-11-17T05:27:36.521Z,12.90
2022-11-17T05:30:06.245Z,12.90
2022-11-17T05:32:33.122Z,13.20
2022-11-17T05:34:59.872Z,12.90
2022-11-17T05:37:26.642Z,12.80
2022-11-17T05:39:53.450Z,12.80
2022-11-17T05:42:20.314Z,13.20
2022-11-17T05:44:48.425Z,12.80
2022-11-17T05:47:15.381Z,13.40
2022-11-17T05:49:42.097Z,13.30
2022-11-17T05:52:08.879Z,13.10
2022-11-17T05:54:35.619Z,12.70
2022-11-17T05:57:14.903Z,12.80
2022-11-17T05:59:50.850Z,13.10
2022-11-17T06:02:24.115Z,13.10
2022-11-17T06:04:51.805Z,12.90
2022-11-17T06:07:19.501Z,13.10
2022-11-17T06:09:46.642Z,12.90
2022-11-17T06:12:15.105Z,12.70
2022-11-17T06:14:41.923Z,12.70
2022-11-17T06:17:23.291Z,12.70
2022-11-17T06:20:09.584Z,12.40
2022-11-17T06:22:36.498Z,12.40
2022-11-17T06:25:04.718Z,12.10
2022-11-17T06:27:32.726Z,12.20
2022-11-17T06:30:05.292Z,12.20
2022-11-17T06:32:34.558Z,12.40
2022-11-17T06:35:03.875Z,12.30
2022-11-17T06:37:30.637Z,12.50
2022-11-17T06:39:57.439Z,12.00
2022-11-17T06:42:44.175Z,11.80
2022-11-17T06:45:11.898Z,11.90
2022-11-17T06:47:38.860Z,11.90
2022-11-17T06:50:06.387Z,11.80
2022-11-17T06:52:33.219Z,11.70
2022-11-17T06:55:00.230Z,11.80
2022-11-17T06:57:27.030Z,11.60
2022-11-17T06:59:53.757Z,11.50
2022-11-17T07:02:20.480Z,11.70
2022-11-17T07:04:47.246Z,11.50
2022-11-17T07:07:14.057Z,11.50
2022-11-17T07:09:40.826Z,11.60
2022-11-17T07:12:07.598Z,11.70
2022-11-17T07:14:34.338Z,11.50
2022-11-17T07:17:01.097Z,11.50
2022-11-17T07:19:27.834Z,11.40
2022-11-17T07:21:54.571Z,11.30
2022-11-17T07:24:21.303Z,11.20
2022-11-17T07:26:48.071Z,11.40
2022-11-17T07:29:14.881Z,11.40
2022-11-17T07:31:41.606Z,11.30
2022-11-17T07:34:08.411Z,11.20
2022-11-17T07:36:35.437Z,11.30
2022-11-17T07:39:02.185Z,11.10
2022-11-17T07:41:28.914Z,11.20
2022-11-17T07:43:55.630Z,11.40
2022-11-17T07:46:22.351Z,11.80
2022-11-17T07:48:49.109Z,11.20
2022-11-17T07:51:17.329Z,11.30
2022-11-17T07:53:44.097Z,11.40
2022-11-17T07:56:11.652Z,11.50
2022-11-17T07:58:39.670Z,11.30
2022-11-17T08:01:15.385Z,11.60
2022-11-17T08:03:45.542Z,11.30
2022-11-17T08:06:12.620Z,11.30
2022-11-17T08:08:40.253Z,11.00
2022-11-17T08:11:12.279Z,11.50
2022-11-17T08:13:40.638Z,11.30
2022-11-17T08:16:09.751Z,11.10
2022-11-17T08:18:37.165Z,11.60
2022-11-17T08:21:15.565Z,11.10
2022-11-17T08:23:42.489Z,11.10
2022-11-17T08:26:11.420Z,10.90
2022-11-17T08:28:38.866Z,11.20
2022-11-17T08:31:08.382Z,11.10
2022-11-17T08:33:35.913Z,10.90
2022-11-17T08:36:04.352Z,10.80
2022-11-17T08:38:31.326Z,11.20
2022-11-17T08:41:08.526Z,10.90
2022-11-17T08:43:35.862Z,11.00
2022-11-17T08:46:02.895Z,11.10
2022-11-17T08:48:31.521Z,11.10
2022-11-17T08:50:58.596Z,10.90
2022-11-17T08:53:25.317Z,11.10
2022-11-17T08:55:52.210Z,10.90
2022-11-17T08:58:19.005Z,10.90
2022-11-17T09:00:47.264Z,11.20
2022-11-17T09:03:14.647Z,11.20
2022-11-17T09:05:45.066Z,11.30
2022-11-17T09:08:43.819Z,11.00
2022-11-17T09:11:09.194Z,11.00
2022-11-17T09:13:36.384Z,11.00
2022-11-17T09:16:06.879Z,11.10
2022-11-17T09:18:36.799Z,11.10
2022-11-17T09:21:10.151Z,11.50
2022-11-17T09:23:38.040Z,10.90
2022-11-17T09:26:08.362Z,11.50
2022-11-17T09:28:35.774Z,10.80
2022-11-17T09:31:08.511Z,10.90
2022-11-17T09:33:35.632Z,11.00
2022-11-17T09:36:02.706Z,11.00
2022-11-17T09:38:29.784Z,11.00
2022-11-17T09:40:58.391Z,11.30
2022-11-17T09:43:33.729Z,11.30
2022-11-17T09:46:13.222Z,11.60
2022-11-17T09:48:48.269Z,11.70
2022-11-17T09:51:21.334Z,11.50
2022-11-17T09:54:42.716Z,11.40
2022-11-17T09:57:37.716Z,11.60
2022-11-17T10:00:22.340Z,12.00
2022-11-17T10:02:51.600Z,11.70
2022-11-17T10:05:34.463Z,12.00
2022-11-17T10:08:08.203Z,12.60
2022-11-17T10:10:50.565Z,11.90
2022-11-17T10:13:36.695Z,12.00
2022-11-17T10:16:11.491Z,12.20
2022-11-17T10:18:39.284Z,11.80
2022-11-17T10:21:08.272Z,12.20
2022-11-17T10:23:47.032Z,12.10
2022-11-17T10:26:16.034Z,12.50
2022-11-17T10:28:43.288Z,12.20
2022-11-17T10:31:17.148Z,12.30
2022-11-17T10:33:46.779Z,12.10
2022-11-17T10:36:18.112Z,12.40
2022-11-17T10:38:47.117Z,12.30
2022-11-17T10:41:37.775Z,12.20
2022-11-17T10:44:13.125Z,12.50
2022-11-17T10:47:03.870Z,12.40
2022-11-17T10:49:39.706Z,12.30
2022-11-17T10:52:16.611Z,12.30
2022-11-17T10:54:43.823Z,12.50
2022-11-17T10:57:22.562Z,12.40
2022-11-17T10:59:57.621Z,12.90
2022-11-17T11:02:37.477Z,12.50
2022-11-17T11:05:18.025Z,12.70
2022-11-17T11:07:44.789Z,12.70
2022-11-17T11:10:33.144Z,12.50
2022-11-17T11:13:17.870Z,12.70
2022-11-17T11:15:45.960Z,12.60
2022-11-17T11:18:18.132Z,13.00
2022-11-17T11:21:07.552Z,13.30
2022-11-17T11:24:06.278Z,13.80
2022-11-17T11:27:08.042Z,13.70
2022-11-17T11:30:06.815Z,13.40
2022-11-17T11:32:49.497Z,13.50
2022-11-17T11:35:55.097Z,13.80
2022-11-17T11:38:53.473Z,13.70
2022-11-17T11:41:50.192Z,13.70
2022-11-17T11:44:51.298Z,14.10
2022-11-17T11:48:24.823Z,14.50
2022-11-17T11:51:37.933Z,14.50
2022-11-17T11:55:07.619Z,14.40
2022-11-17T11:58:11.166Z,14.80
2022-11-17T12:01:06.745Z,14.40
2022-11-17T12:04:57.600Z,14.40
2022-11-17T12:08:29.640Z,14.10
2022-11-17T12:11:44.251Z,14.60
2022-11-17T12:14:18.561Z,14.40
2022-11-17T12:16:47.975Z,14.30
2022-11-17T12:19:46.833Z,14.40
2022-11-17T12:22:34.112Z,14.40
2022-11-17T12:25:24.290Z,15.00
2022-11-17T12:28:11.103Z,14.80
2022-11-17T12:31:14.625Z,14.60
2022-11-17T12:34:28.959Z,14.60
2022-11-17T12:37:14.773Z,14.30
2022-11-17T12:40:03.771Z,14.40
2022-11-17T12:42:33.190Z,14.40
2022-11-17T12:45:11.679Z,14.40
2022-11-17T12:47:44.145Z,14.20
2022-11-17T12:50:43.334Z,14.20
2022-11-17T12:53:11.893Z,14.10
2022-11-17T12:55:53.133Z,13.90
2022-11-17T12:58:49.090Z,14.00
2022-11-17T13:01:42.100Z,14.00
2022-11-17T13:04:20.344Z,14.00
2022-11-17T13:07:06.701Z,14.10
2022-11-17T13:09:36.255Z,14.00
2022-11-17T13:12:06.673Z,14.00
2022-11-17T13:14:36.392Z,13.90
2022-11-17T13:17:03.967Z,14.10
2022-11-17T13:19:31.233Z,14.00
2022-11-17T13:22:15.024Z,14.10
2022-11-17T13:24:45.729Z,14.10
2022-11-17T13:27:30.451Z,14.10
2022-11-17T13:30:29.306Z,14.20
2022-11-17T13:32:57.495Z,14.00
2022-11-17T13:35:36.625Z,14.30
2022-11-17T13:38:22.434Z,14.10
2022-11-17T13:40:51.863Z,14.10
2022-11-17T13:43:21.618Z,14.20
2022-11-17T13:45:50.027Z,14.20
2022-11-17T13:48:43.402Z,14.20
2022-11-17T13:51:40.011Z,14.30
2022-11-17T13:54:17.585Z,14.30
2022-11-17T13:56:47.295Z,14.30
2022-11-17T13:59:27.098Z,14.90
2022-11-17T14:02:21.482Z,14.60
2022-11-17T14:05:19.993Z,14.40
2022-11-17T14:07:49.337Z,14.30
2022-11-17T14:10:22.342Z,14.20
2022-11-17T14:12:51.696Z,14.30
2022-11-17T14:15:21.493Z,14.30
2022-11-17T14:18:00.165Z,14.30
2022-11-17T14:20:36.631Z,14.40
2022-11-17T14:23:25.432Z,14.20
2022-11-17T14:25:53.944Z,14.30
2022-11-17T14:28:22.899Z,14.30
2022-11-17T14:30:53.014Z,14.10
2022-11-17T14:33:20.365Z,14.40
2022-11-17T14:35:53.356Z,14.20
2022-11-17T14:38:21.421Z,14.10
2022-11-17T14:40:52.944Z,14.10
2022-11-17T14:43:21.515Z,14.00
2022-11-17T14:45:49.453Z,14.10
2022-11-17T14:48:19.274Z,13.90
2022-11-17T14:50:47.384Z,14.10
2022-11-17T14:53:14.461Z,13.90
2022-11-17T14:55:41.226Z,14.00
2022-11-17T14:58:09.720Z,13.90
2022-11-17T15:00:36.476Z,13.90
2022-11-17T15:03:03.340Z,14.10
2022-11-17T15:05:30.120Z,14.10
2022-11-17T15:07:57.070Z,14.40
2022-11-17T15:10:24.021Z,14.20
2022-11-17T15:12:50.800Z,14.10
2022-11-17T15:15:18.084Z,13.90
2022-11-17T15:17:44.937Z,14.10
2022-11-17T15:20:12.128Z,14.10
2022-11-17T15:22:38.937Z,13.80
2022-11-17T15:25:06.520Z,14.00
2022-11-17T15:27:33.263Z,13.80
2022-11-17T15:30:00.042Z,13.80
2022-11-17T15:32:26.783Z,13.90
2022-11-17T15:34:53.511Z,13.90
2022-11-17T15:37:20.253Z,13.80
2022-11-17T15:39:46.976Z,13.80
2022-11-17T15:42:13.949Z,13.70
2022-11-17T15:44:40.742Z,13.70
2022-11-17T15:47:07.505Z,13.80
2022-11-17T15:49:34.371Z,13.80
2022-11-17T15:52:01.125Z,13.80
2022-11-17T15:54:27.850Z,13.70
2022-11-17T15:56:55.442Z,13.70
2022-11-17T15:59:22.493Z,13.70
2022-11-17T16:01:49.596Z,13.70
2022-11-17T16:04:16.461Z,13.80
2022-11-17T16:06:45.769Z,13.60
2022-11-17T16:09:12.848Z,13.60
2022-11-17T16:11:40.520Z,13.70
2022-11-17T16:14:07.513Z,13.70
2022-11-17T16:16:37.663Z,13.60
2022-11-17T16:19:05.653Z,13.80
2022-11-17T16:21:32.688Z,13.70
2022-11-17T16:24:00.807Z,13.80
2022-11-17T16:26:29.108Z,13.60
2022-11-17T16:29:01.173Z,13.70
2022-11-17T16:31:31.130Z,13.60
2022-11-17T16:34:06.785Z,13.40
2022-11-17T16:36:36.749Z,13.50
2022-11-17T16:39:11.686Z,13.50
2022-11-17T16:41:41.110Z,13.50
2022-11-17T16:44:16.981Z,13.50
2022-11-17T16:46:47.314Z,13.50
2022-11-17T16:49:17.225Z,13.40
2022-11-17T16:51:53.774Z,13.40
2022-11-17T16:54:20.936Z,13.50
2022-11-17T16:56:48.074Z,13.60
2022-11-17T16:59:15.330Z,13.60
2022-11-17T17:01:42.246Z,13.50
2022-11-17T17:04:10.830Z,13.50
2022-11-17T17:06:41.652Z,13.70
2022-11-17T17:09:10.555Z,13.90
2022-11-17T17:11:38.007Z,13.80
2022-11-17T17:14:08.194Z,13.70
2022-11-17T17:16:36.903Z,13.60
2022-11-17T17:19:06.498Z,13.70
2022-11-17T17:21:34.340Z,13.70
2022-11-17T17:24:01.197Z,13.70
2022-11-17T17:26:30.951Z,13.70
2022-11-17T17:29:00.307Z,13.90
2022-11-17T17:31:41.300Z,13.50
2022-11-17T17:34:10.121Z,13.50
2022-11-17T17:36:38.349Z,13.40
2022-11-17T17:39:06.106Z,13.30
2022-11-17T17:41:38.743Z,13.50
2022-11-17T17:44:07.900Z,12.90
2022-11-17T17:46:37.919Z,12.60
2022-11-17T17:49:05.918Z,12.40
2022-11-17T17:51:36.607Z,12.70
2022-11-17T17:54:03.435Z,12.80
2022-11-17T17:56:32.769Z,12.90
2022-11-17T17:58:59.526Z,12.70
2022-11-17T18:01:35.349Z,12.90
2022-11-17T18:04:05.485Z,12.70
2022-11-17T18:06:41.254Z,12.90
2022-11-17T18:09:10.641Z,12.40
2022-11-17T18:11:37.537Z,12.80
2022-11-17T18:14:04.452Z,13.30
2022-11-17T18:16:33.303Z,13.00
2022-11-17T18:19:07.308Z,12.10
2022-11-17T18:21:34.918Z,12.20
2022-11-17T18:24:03.203Z,12.10
2022-11-17T18:26:35.959Z,11.70
2022-11-17T18:29:11.494Z,11.60
2022-11-17T18:31:38.429Z,11.70
2022-11-17T18:34:15.386Z,11.90
2022-11-17T18:36:42.298Z,11.20
2022-11-17T18:39:09.359Z,11.90
2022-11-17T18:41:37.461Z,11.60
2022-11-17T18:44:04.615Z,11.50
2022-11-17T18:46:33.536Z,11.80
2022-11-17T18:49:01.330Z,11.90
2022-11-17T18:51:31.068Z,11.70
2022-11-17T18:54:00.330Z,11.80
2022-11-17T18:56:37.988Z,11.60
2022-11-17T18:59:11.165Z,11.60
2022-11-17T19:01:40.443Z,11.90
2022-11-17T19:04:07.660Z,11.50
2022-11-17T19:06:34.521Z,11.40
2022-11-17T19:09:01.856Z,11.60
2022-11-17T19:11:33.890Z,11.20
2022-11-17T19:14:02.372Z,11.40
2022-11-17T19:16:29.945Z,11.50
2022-11-17T19:18:57.356Z,11.40
2022-11-17T19:21:27.825Z,11.40
2022-11-17T19:23:58.161Z,11.50
2022-11-17T19:26:32.183Z,11.40
2022-11-17T19:29:14.265Z,11.60
2022-11-17T19:31:49.538Z,11.70
2022-11-17T19:34:20.243Z,12.00
2022-11-17T19:36:47.108Z,11.70
2022-11-17T19:39:14.895Z,11.80
2022-11-17T19:41:42.373Z,12.30
2022-11-17T19:44:09.918Z,12.50
2022-11-17T19:46:37.441Z,12.50
2022-11-17T19:49:05.959Z,13.40
2022-11-17T19:51:36.672Z,13.70
2022-11-17T19:54:08.966Z,12.90
2022-11-17T19:56:36.418Z,12.40
2022-11-17T19:59:03.354Z,11.70
2022-11-17T20:01:31.742Z,11.70
2022-11-17T20:04:00.485Z,11.40
2022-11-17T20:06:33.890Z,11.40
2022-11-17T20:09:00.881Z,11.40
2022-11-17T20:11:28.797Z,11.40
2022-11-17T20:13:55.982Z,11.50
2022-11-17T20:16:26.192Z,11.60
2022-11-17T20:18:58.781Z,11.50
2022-11-17T20:21:27.503Z,11.60
2022-11-17T20:23:55.416Z,11.60
2022-11-17T20:26:26.896Z,11.70
2022-11-17T20:28:54.234Z,11.90
2022-11-17T20:31:27.192Z,11.60
2022-11-17T20:34:00.343Z,11.70
2022-11-17T20:36:29.446Z,11.90
2022-11-17T20:39:00.340Z,12.00
2022-11-17T20:41:27.251Z,11.90
2022-11-17T20:43:56.510Z,11.70
2022-11-17T20:46:24.055Z,11.80
2022-11-17T20:48:51.273Z,11.90
2022-11-17T20:51:21.194Z,11.80
2022-11-17T20:53:48.084Z,12.20
2022-11-17T20:56:16.197Z,12.40
2022-11-17T20:58:43.346Z,12.90
2022-11-17T21:01:19.688Z,12.60
2022-11-17T21:03:46.906Z,13.00
2022-11-17T21:06:15.433Z,12.30
2022-11-17T21:08:44.398Z,12.20
2022-11-17T21:11:34.051Z,12.50
2022-11-17T21:14:01.282Z,11.90
2022-11-17T21:16:28.199Z,11.80
2022-11-17T21:18:54.946Z,11.90
2022-11-17T21:21:21.821Z,11.80
2022-11-17T21:23:53.475Z,11.70
2022-11-17T21:26:20.281Z,11.70
2022-11-17T21:28:47.365Z,11.80
2022-11-17T21:31:30.132Z,11.50
2022-11-17T21:34:02.649Z,12.20
2022-11-17T21:36:31.190Z,11.70
2022-11-17T21:38:58.621Z,12.10
2022-11-17T21:41:28.354Z,11.70
2022-11-17T21:44:00.432Z,12.10
2022-11-17T21:46:30.224Z,12.30
2022-11-17T21:48:58.991Z,12.50
2022-11-17T21:51:33.228Z,12.40
2022-11-17T21:54:03.424Z,12.40
2022-11-17T21:56:31.859Z,11.90
2022-11-17T21:59:12.544Z,12.30
2022-11-17T22:01:39.939Z,12.00
2022-11-17T22:04:06.963Z,11.90
2022-11-17T22:06:33.931Z,12.20
2022-11-17T22:09:00.890Z,12.00
2022-11-17T22:11:36.753Z,11.70
2022-11-17T22:14:07.055Z,11.90
2022-11-17T22:16:36.111Z,11.40
2022-11-17T22:19:03.761Z,11.50
2022-11-17T22:21:30.833Z,11.50
2022-11-17T22:23:57.776Z,11.40
2022-11-17T22:26:24.712Z,11.70
2022-11-17T22:28:54.153Z,11.90
2022-11-17T22:31:22.488Z,12.00
2022-11-17T22:33:50.309Z,11.60
2022-11-17T22:36:17.735Z,11.60
2022-11-17T22:38:45.584Z,11.70
2022-11-17T22:41:13.195Z,11.40
2022-11-17T22:43:39.990Z,11.50
2022-11-17T22:46:10.582Z,11.30
2022-11-17T22:48:38.270Z,11.60
2022-11-17T22:51:05.662Z,11.70
2022-11-17T22:53:33.688Z,11.80
2022-11-17T22:56:06.773Z,11.80
2022-11-17T22:58:34.389Z,12.40
2022-11-17T23:01:08.046Z,12.70
2022-11-17T23:03:34.945Z,12.70
2022-11-17T23:06:03.993Z,11.50
2022-11-17T23:08:31.319Z,11.30
2022-11-17T23:11:35.631Z,11.50
2022-11-17T23:13:54.442Z,11.40
2022-11-17T23:16:22.050Z,10.90
2022-11-17T23:18:53.628Z,11.10
2022-11-17T23:21:20.608Z,11.20
2022-11-17T23:23:48.524Z,10.90
2022-11-17T23:26:15.599Z,10.90
2022-11-17T23:28:43.612Z,11.00
2022-11-17T23:31:13.483Z,11.00
2022-11-17T23:33:43.621Z,11.00
2022-11-17T23:36:21.412Z,11.00
2022-11-17T23:38:49.689Z,10.90
2022-11-17T23:41:19.761Z,10.80
2022-11-17T23:43:50.611Z,10.80
2022-11-17T23:46:20.863Z,10.90
2022-11-17T23:48:47.706Z,10.90
2022-11-17T23:51:20.710Z,11.10
2022-11-17T23:53:47.939Z,11.00
2022-11-17T23:56:15.378Z,11.10
2022-11-17T23:58:43.458Z,10.90
